Time;durP1;ratioP1;P1;durP2;ratioP2;P2;SDS_P1;SDS_P2;PMS_P1;PMS_P2;Temp;Humidity;BMP_temperature;BMP_pressure;BME280_temperature;BME280_humidity;BME280_pressure;Samples;Min_cycle;Max_cycle;Signal;HPM_P1;HPM_P2
2022/04/13 00:00:48;;;;;;;4.77;2.20;;;17.20;53.10;;;;;;5003215;28;20267;-78
2022/04/13 00:03:15;;;;;;;2.90;2.30;;;17.10;53.60;;;;;;5001827;28;20274;-78
2022/04/13 00:05:41;;;;;;;3.00;2.13;;;16.90;53.60;;;;;;5007299;28;20286;-78
2022/04/13 00:08:08;;;;;;;2.17;1.83;;;16.80;54.20;;;;;;5006160;28;20198;-78
2022/04/13 00:10:34;;;;;;;3.50;2.10;;;16.70;54.40;;;;;;5005828;28;20199;-78
2022/04/13 00:13:00;;;;;;;1.80;1.70;;;16.70;54.30;;;;;;5008119;28;20195;-78
2022/04/13 00:15:26;;;;;;;3.03;2.10;;;16.70;54.60;;;;;;5001743;28;20214;-78
2022/04/13 00:17:53;;;;;;;5.00;2.60;;;;;;;;;;5003497;28;20579;-78
2022/04/13 00:20:21;;;;;;;4.27;2.70;;;;;;;;;;5002433;28;20297;-78
2022/04/13 00:22:48;;;;;;;2.30;1.80;;;;;;;;;;5000021;28;20184;-78
2022/04/13 00:25:14;;;;;;;3.67;2.20;;;;;;;;;;4998398;28;20214;-78
2022/04/13 00:27:41;;;;;;;2.37;2.17;;;;;;;;;;4997626;28;20193;-78
2022/04/13 00:30:07;;;;;;;3.57;2.17;;;;;;;;;;4999519;28;20241;-78
2022/04/13 00:32:34;;;;;;;3.97;2.57;;;;;;;;;;5001488;28;20194;-78
2022/04/13 00:35:04;;;;;;;3.27;2.70;;;;;;;;;;5007231;28;20179;-78
2022/04/13 00:37:31;;;;;;;3.07;2.77;;;;;;;;;;5004373;28;20214;-78
2022/04/13 00:39:57;;;;;;;3.57;2.90;;;;;;;;;;4992900;28;20226;-78
2022/04/13 00:42:24;;;;;;;3.23;2.90;;;16.60;54.70;;;;;;4986814;28;20198;-78
2022/04/13 00:44:50;;;;;;;3.70;2.67;;;15.90;56.70;;;;;;5009842;28;20531;-78
2022/04/13 00:47:18;;;;;;;5.00;3.50;;;15.80;56.90;;;;;;5009450;28;20258;-78
2022/04/13 00:49:44;;;;;;;4.23;2.90;;;15.70;57.00;;;;;;5008260;28;20190;-78
2022/04/13 00:52:12;;;;;;;4.50;3.10;;;15.70;56.90;;;;;;5004371;28;20183;-78
2022/04/13 00:54:42;;;;;;;3.57;2.80;;;15.70;57.20;;;;;;5003679;28;20218;-78
2022/04/13 00:57:11;;;;;;;3.77;2.87;;;15.70;57.30;;;;;;5005953;28;20175;-78
2022/04/13 00:59:40;;;;;;;2.77;2.23;;;15.70;57.30;;;;;;5022083;28;20201;-78
2022/04/13 01:02:08;;;;;;;4.53;3.10;;;15.70;57.40;;;;;;4991267;28;20183;-78
2022/04/13 01:04:36;;;;;;;4.07;2.73;;;15.70;57.30;;;;;;5008320;28;20191;-78
2022/04/13 01:07:03;;;;;;;4.20;2.60;;;15.70;57.60;;;;;;5008127;28;20229;-78
2022/04/13 01:09:30;;;;;;;4.57;2.60;;;15.70;57.50;;;;;;5008672;28;20237;-78
2022/04/13 01:11:56;;;;;;;3.03;2.60;;;15.60;57.80;;;;;;4984641;28;20932;-78
2022/04/13 01:14:22;;;;;;;4.80;2.70;;;15.60;58.10;;;;;;5008622;28;20321;-78
2022/04/13 01:16:48;;;;;;;2.97;2.23;;;15.60;58.10;;;;;;5007675;28;20317;-78
2022/04/13 01:19:17;;;;;;;3.13;2.23;;;15.50;58.50;;;;;;5007545;28;20195;-78
2022/04/13 01:21:47;;;;;;;2.77;2.10;;;15.40;58.60;;;;;;4991122;28;20265;-78
2022/04/13 01:24:14;;;;;;;4.37;2.33;;;15.40;58.90;;;;;;5004747;28;20275;-78
2022/04/13 01:26:40;;;;;;;4.10;2.80;;;15.30;59.10;;;;;;5004845;28;20817;-78
2022/04/13 01:29:06;;;;;;;5.13;2.60;;;15.30;59.20;;;;;;5010690;28;20179;-78
2022/04/13 01:31:32;;;;;;;4.00;2.70;;;15.30;59.30;;;;;;5006840;28;20571;-78
2022/04/13 01:33:59;;;;;;;3.63;2.43;;;15.30;59.30;;;;;;5009414;28;20179;-78
2022/04/13 01:36:26;;;;;;;3.33;2.30;;;15.20;59.30;;;;;;5009080;28;20215;-78
2022/04/13 01:38:53;;;;;;;3.30;2.40;;;15.20;59.40;;;;;;5010911;28;20214;-78
2022/04/13 01:41:19;;;;;;;3.10;2.60;;;15.20;59.50;;;;;;5006285;28;20213;-78
2022/04/13 01:43:45;;;;;;;3.50;2.60;;;15.20;59.60;;;;;;5005926;28;20196;-78
2022/04/13 01:46:11;;;;;;;5.43;3.03;;;15.10;59.90;;;;;;5007024;28;20199;-78
2022/04/13 01:48:37;;;;;;;5.00;2.90;;;15.10;60.40;;;;;;5003415;28;20190;-78
2022/04/13 01:51:02;;;;;;;3.40;3.10;;;15.00;60.20;;;;;;5005133;28;20564;-77
2022/04/13 01:53:29;;;;;;;3.43;3.00;;;14.80;60.20;;;;;;5007677;28;20250;-78
2022/04/13 01:55:55;;;;;;;4.00;2.90;;;14.70;60.60;;;;;;5007746;28;20302;-78
2022/04/13 01:58:21;;;;;;;5.40;3.20;;;14.60;61.10;;;;;;5000925;28;20710;-78
2022/04/13 02:00:54;;;;;;;3.90;3.50;;;14.50;61.60;;;;;;5007852;28;20211;-78
2022/04/13 02:03:21;;;;;;;3.70;3.40;;;14.40;62.40;;;;;;5004255;28;20183;-78
2022/04/13 02:05:48;;;;;;;6.37;3.80;;;14.40;62.50;;;;;;5008961;28;20229;-78
2022/04/13 02:08:15;;;;;;;6.10;3.73;;;14.30;62.80;;;;;;5006848;28;20179;-78
2022/04/13 02:10:41;;;;;;;6.87;3.53;;;14.20;63.40;;;;;;4991224;28;21031;-78
2022/04/13 02:13:07;;;;;;;4.40;3.40;;;14.20;64.40;;;;;;5008361;28;20415;-78
2022/04/13 02:15:32;;;;;;;4.43;3.87;;;14.20;64.70;;;;;;5004008;28;20218;-78
2022/04/13 02:17:58;;;;;;;3.40;3.10;;;14.10;65.60;;;;;;5009130;28;20189;-78
2022/04/13 02:20:24;;;;;;;3.97;3.50;;;14.10;66.40;;;;;;4990249;28;20214;-78
2022/04/13 02:22:50;;;;;;;4.67;4.20;;;14.20;66.30;;;;;;4991293;28;20261;-78
2022/04/13 02:25:16;;;;;;;6.20;4.20;;;14.10;66.50;;;;;;5009034;28;20211;-78
2022/04/13 02:27:42;;;;;;;4.67;3.83;;;14.20;66.90;;;;;;5012192;28;20186;-78
2022/04/13 02:30:08;;;;;;;3.97;3.40;;;14.20;67.60;;;;;;5007686;28;20284;-78
2022/04/13 02:32:43;;;;;;;5.50;3.67;;;14.10;68.90;;;;;;5010482;28;20214;-78
2022/04/13 02:35:10;;;;;;;5.03;3.50;;;14.10;69.40;;;;;;5009927;28;20202;-78
2022/04/13 02:37:36;;;;;;;7.93;4.50;;;14.10;69.60;;;;;;5012884;28;20183;-78
2022/04/13 02:40:02;;;;;;;9.57;5.53;;;14.10;70.40;;;;;;5012453;28;20195;-78
2022/04/13 02:42:33;;;;;;;6.30;4.67;;;14.20;70.10;;;;;;5012462;28;20175;-78
2022/04/13 02:44:59;;;;;;;8.63;5.03;;;14.20;70.60;;;;;;5007371;28;20205;-78
2022/04/13 02:47:25;;;;;;;7.27;4.43;;;14.20;71.30;;;;;;5012185;28;20199;-78
2022/04/13 02:49:51;;;;;;;4.87;4.17;;;14.30;71.90;;;;;;5012528;28;20217;-78
2022/04/13 02:52:16;;;;;;;5.67;4.33;;;14.20;72.20;;;;;;5010177;28;20647;-78
2022/04/13 02:54:42;;;;;;;5.27;4.30;;;14.20;74.60;;;;;;5020468;28;20802;-78
2022/04/13 02:57:08;;;;;;;4.47;3.80;;;14.20;77.00;;;;;;5014746;28;20577;-78
2022/04/13 02:59:34;;;;;;;4.73;4.00;;;14.10;78.40;;;;;;5019532;28;20229;-78
2022/04/13 03:01:59;;;;;;;4.60;4.00;;;14.10;78.10;;;;;;5013539;28;20204;-78
2022/04/13 03:04:25;;;;;;;4.70;3.70;;;14.10;78.80;;;;;;5008722;28;20672;-78
2022/04/13 03:06:51;;;;;;;7.00;4.00;;;14.00;79.70;;;;;;5009979;28;20292;-78
2022/04/13 03:09:16;;;;;;;5.10;4.27;;;14.00;80.90;;;;;;5009018;28;20666;-78
2022/04/13 03:11:43;;;;;;;6.10;4.13;;;14.00;81.70;;;;;;4992642;28;20190;-78
2022/04/13 03:14:08;;;;;;;5.77;4.10;;;14.00;83.70;;;;;;5011684;28;20266;-78
2022/04/13 03:16:34;;;;;;;4.63;4.23;;;13.90;86.30;;;;;;4975900;28;20628;-78
2022/04/13 03:19:01;;;;;;;5.47;3.90;;;13.90;87.10;;;;;;5011203;28;20190;-78
2022/04/13 03:21:27;;;;;;;4.40;4.00;;;13.90;88.00;;;;;;5007896;28;20710;-78
2022/04/13 03:23:53;;;;;;;6.60;4.20;;;13.90;87.80;;;;;;5010318;28;20195;-78
2022/04/13 03:26:18;;;;;;;9.60;4.73;;;13.80;89.50;;;;;;5008434;28;20206;-78
2022/04/13 03:28:44;;;;;;;5.57;3.73;;;13.60;90.60;;;;;;5007765;28;20604;-78
2022/04/13 03:31:10;;;;;;;4.23;3.83;;;13.50;93.00;;;;;;4993129;28;20190;-78
2022/04/13 03:33:36;;;;;;;4.70;3.60;;;13.50;93.50;;;;;;5011444;28;20187;-78
2022/04/13 03:36:02;;;;;;;4.90;4.03;;;13.50;93.70;;;;;;5012541;28;20261;-78
2022/04/13 03:38:28;;;;;;;4.77;4.20;;;13.50;93.60;;;;;;5009992;28;20199;-78
2022/04/13 03:40:53;;;;;;;4.60;4.10;;;13.50;94.30;;;;;;5009293;28;20219;-78
2022/04/13 03:43:19;;;;;;;6.47;4.60;;;13.50;94.60;;;;;;4998824;28;20184;-78
2022/04/13 03:45:45;;;;;;;6.37;4.90;;;13.50;95.10;;;;;;5010314;28;20646;-78
2022/04/13 03:48:10;;;;;;;5.07;4.27;;;13.50;96.10;;;;;;5009483;28;20191;-78
2022/04/13 03:50:36;;;;;;;5.03;4.13;;;13.50;96.70;;;;;;5006795;28;20201;-78
2022/04/13 03:53:02;;;;;;;4.50;3.80;;;13.50;97.40;;;;;;5002497;28;20253;-78
2022/04/13 03:55:28;;;;;;;4.40;4.00;;;13.50;97.80;;;;;;5004044;28;20293;-78
2022/04/13 03:57:53;;;;;;;5.47;3.90;;;13.50;98.10;;;;;;5007324;28;20215;-78
2022/04/13 04:00:19;;;;;;;5.07;4.03;;;13.50;98.40;;;;;;5007294;28;20211;-78
2022/04/13 04:02:45;;;;;;;4.03;3.60;;;13.50;98.00;;;;;;5004499;28;20179;-78
2022/04/13 04:05:11;;;;;;;4.73;3.67;;;13.40;98.30;;;;;;5006290;28;20260;-78
2022/04/13 04:07:37;;;;;;;6.07;4.20;;;13.30;98.50;;;;;;5001252;28;20236;-78
2022/04/13 04:10:05;;;;;;;4.30;3.90;;;13.20;99.40;;;;;;4999750;28;20303;-78
2022/04/13 04:12:41;;;;;;;6.53;4.03;;;13.20;99.70;;;;;;5003270;28;20558;-78
2022/04/13 04:15:09;;;;;;;7.10;3.93;;;13.20;99.90;;;;;;4986136;28;20983;-78
2022/04/13 04:17:36;;;;;;;6.23;3.70;;;13.20;99.90;;;;;;5017492;28;20203;-78
2022/04/13 04:20:06;;;;;;;4.93;4.00;;;13.10;99.80;;;;;;4988529;28;20585;-76
2022/04/13 04:22:32;;;;;;;4.83;4.00;;;13.10;99.90;;;;;;5004905;28;20192;-78
2022/04/13 04:25:06;;;;;;;4.17;3.77;;;13.00;99.90;;;;;;5003532;28;20198;-78
2022/04/13 04:27:32;;;;;;;4.97;3.90;;;13.00;99.90;;;;;;5007839;28;20194;-78
2022/04/13 04:29:58;;;;;;;4.60;3.93;;;13.00;99.90;;;;;;5001563;28;20554;-78
2022/04/13 04:32:24;;;;;;;5.80;4.10;;;13.00;99.90;;;;;;4993636;28;20175;-78
2022/04/13 04:34:50;;;;;;;6.97;4.30;;;13.00;99.90;;;;;;5004338;28;20190;-78
2022/04/13 04:37:15;;;;;;;5.03;3.83;;;13.00;99.90;;;;;;5009287;28;20191;-78
2022/04/13 04:39:41;;;;;;;4.50;3.60;;;12.90;99.90;;;;;;5001543;28;20536;-78
2022/04/13 04:42:07;;;;;;;4.40;3.47;;;12.80;99.90;;;;;;5004656;28;20211;-78
2022/04/13 04:44:33;;;;;;;5.77;3.80;;;12.70;99.90;;;;;;5005139;28;20186;-78
2022/04/13 04:46:59;;;;;;;4.47;4.07;;;12.60;99.90;;;;;;4997619;28;20755;-79
2022/04/13 04:49:25;;;;;;;5.23;3.93;;;12.60;99.90;;;;;;5003068;28;20184;-78
2022/04/13 04:51:51;;;;;;;6.03;4.10;;;12.60;99.90;;;;;;4986088;28;20606;-78
2022/04/13 04:54:17;;;;;;;6.47;3.97;;;12.60;99.90;;;;;;5003025;28;20179;-78
2022/04/13 04:56:43;;;;;;;6.93;4.83;;;12.60;99.90;;;;;;4999029;28;20200;-78
2022/04/13 04:59:08;;;;;;;6.60;5.13;;;12.50;99.90;;;;;;4993392;28;20679;-78
2022/04/13 05:01:34;;;;;;;5.97;4.63;;;12.50;99.90;;;;;;5011920;28;20245;-78
2022/04/13 05:04:00;;;;;;;6.50;5.87;;;12.50;99.90;;;;;;5018031;28;20605;-78
2022/04/13 05:06:29;;;;;;;6.70;5.07;;;12.50;99.90;;;;;;5005510;28;20342;-78
2022/04/13 05:08:56;;;;;;;4.83;4.30;;;12.60;99.90;;;;;;5006447;28;20717;-78
2022/04/13 05:11:22;;;;;;;4.77;4.03;;;12.60;99.90;;;;;;4991637;28;20192;-78
2022/04/13 05:13:49;;;;;;;5.37;4.23;;;12.60;99.90;;;;;;4993643;28;20267;-78
2022/04/13 05:16:16;;;;;;;6.10;4.57;;;12.60;99.90;;;;;;5010947;28;20203;-78
2022/04/13 05:18:43;;;;;;;5.50;4.03;;;12.60;99.90;;;;;;5005188;28;20188;-78
2022/04/13 05:21:09;;;;;;;5.03;4.33;;;12.60;99.90;;;;;;5011306;28;20325;-78
2022/04/13 05:23:36;;;;;;;6.37;4.37;;;12.70;99.90;;;;;;5009991;28;20659;-80
2022/04/13 05:26:02;;;;;;;6.20;4.00;;;12.70;99.90;;;;;;5006678;28;20199;-79
2022/04/13 05:28:29;;;;;;;5.97;4.13;;;12.70;99.90;;;;;;5011180;28;20189;-79
2022/04/13 05:30:55;;;;;;;6.00;5.40;;;12.70;99.90;;;;;;4992862;28;20535;-81
2022/04/13 05:33:21;;;;;;;5.97;4.37;;;12.70;99.90;;;;;;4994658;28;20187;-78
2022/04/13 05:35:47;;;;;;;6.80;3.90;;;12.70;99.90;;;;;;5004067;28;20208;-79
2022/04/13 05:38:12;;;;;;;4.90;4.17;;;12.70;99.90;;;;;;4989358;28;20213;-78
2022/04/13 05:40:39;;;;;;;7.00;4.67;;;12.70;99.90;;;;;;5009138;28;20195;-79
2022/04/13 05:43:05;;;;;;;4.83;3.90;;;12.70;99.90;;;;;;4974434;28;20671;-78
2022/04/13 05:45:31;;;;;;;4.10;3.60;;;12.80;99.90;;;;;;5004532;28;20306;-78
2022/04/13 05:47:57;;;;;;;4.97;4.40;;;12.90;99.90;;;;;;5010955;28;20186;-76
2022/04/13 05:50:23;;;;;;;5.57;4.33;;;12.90;99.90;;;;;;5011338;28;20175;-79
2022/04/13 05:52:49;;;;;;;7.90;4.90;;;12.90;99.90;;;;;;5011732;28;20185;-80
2022/04/13 05:55:14;;;;;;;7.37;4.57;;;13.00;99.90;;;;;;4979758;28;20208;-78
2022/04/13 05:57:41;;;;;;;5.87;4.30;;;13.10;99.90;;;;;;5028862;28;20330;-78
2022/04/13 06:00:10;;;;;;;9.53;4.57;;;13.00;99.90;;;;;;5010155;28;20217;-78
2022/04/13 06:02:37;;;;;;;6.27;4.53;;;12.90;99.90;;;;;;5027488;28;20186;-78
2022/04/13 06:05:04;;;;;;;6.43;4.60;;;12.90;99.90;;;;;;5009575;28;20195;-78
2022/04/13 06:07:30;;;;;;;10.67;4.53;;;12.90;99.90;;;;;;5015470;28;20218;-78
2022/04/13 06:10:01;;;;;;;7.53;5.00;;;12.90;99.90;;;;;;5014433;28;20191;-78
2022/04/13 06:12:27;;;;;;;8.07;5.13;;;13.00;99.90;;;;;;5012956;28;20266;-78
2022/04/13 06:15:09;;;;;;;9.57;5.50;;;13.10;99.90;;;;;;5015404;28;20175;-79
2022/04/13 06:17:36;;;;;;;9.57;6.20;;;13.20;99.90;;;;;;5014687;28;20245;-78
2022/04/13 06:20:03;;;;;;;11.20;6.00;;;13.30;99.90;;;;;;5027847;28;20575;-78
2022/04/13 06:22:36;;;;;;;10.53;5.83;;;13.30;99.90;;;;;;5025782;28;20184;-78
2022/04/13 06:25:03;;;;;;;7.33;4.90;;;13.40;99.90;;;;;;5011355;28;20450;-79
2022/04/13 06:27:29;;;;;;;11.13;5.13;;;13.40;99.90;;;;;;5011708;28;20180;-78
2022/04/13 06:29:55;;;;;;;9.30;5.57;;;13.40;99.90;;;;;;5001464;28;20202;-81
2022/04/13 06:32:20;;;;;;;7.23;4.97;;;13.40;99.90;;;;;;5011721;28;20174;-78
2022/04/13 06:34:46;;;;;;;7.37;4.70;;;13.30;99.90;;;;;;5007299;28;20274;-77
2022/04/13 06:37:12;;;;;;;7.67;4.73;;;13.40;99.90;;;;;;5013865;28;20215;-78
2022/04/13 06:39:37;;;;;;;8.13;4.90;;;13.40;99.90;;;;;;5029320;28;20257;-78
2022/04/13 06:42:04;;;;;;;7.77;5.40;;;13.50;99.90;;;;;;4985041;28;20622;-78
2022/04/13 06:44:30;;;;;;;7.43;5.47;;;13.60;99.90;;;;;;5014324;28;20175;-78
2022/04/13 06:46:58;;;;;;;8.03;5.00;;;13.70;99.90;;;;;;5006915;28;20203;-79
2022/04/13 06:49:24;;;;;;;10.33;5.33;;;13.80;99.90;;;;;;5010725;28;20179;-78
2022/04/13 06:51:50;;;;;;;9.30;5.00;;;13.90;99.90;;;;;;5019136;28;20179;-79
2022/04/13 06:54:15;;;;;;;7.47;4.90;;;14.00;99.90;;;;;;5011853;28;21001;-78
2022/04/13 06:56:41;;;;;;;7.50;5.10;;;14.10;99.90;;;;;;5002773;28;20203;-78
2022/04/13 06:59:07;;;;;;;5.57;4.80;;;14.20;99.90;;;;;;5025815;28;20712;-78
2022/04/13 07:01:32;;;;;;;7.13;5.27;;;14.30;99.70;;;;;;5014792;28;20868;-78
2022/04/13 07:03:58;;;;;;;12.20;4.80;;;14.40;99.10;;;;;;5014420;28;20175;-78
2022/04/13 07:06:24;;;;;;;6.97;4.77;;;14.60;97.80;;;;;;5003496;28;20227;-78
2022/04/13 07:08:50;;;;;;;7.67;5.10;;;14.70;96.90;;;;;;5012304;28;20674;-78
2022/04/13 07:11:15;;;;;;;5.87;4.60;;;14.90;96.70;;;;;;5012109;28;20241;-81
2022/04/13 07:13:41;;;;;;;6.70;4.90;;;15.00;95.20;;;;;;5010036;28;20316;-80
2022/04/13 07:16:07;;;;;;;6.13;5.10;;;15.10;94.10;;;;;;5012743;28;20289;-77
2022/04/13 07:18:34;;;;;;;6.40;4.87;;;15.20;92.50;;;;;;4997647;28;20194;-78
2022/04/13 07:21:01;;;;;;;8.63;4.77;;;15.30;91.00;;;;;;4995644;28;20213;-78
2022/04/13 07:23:26;;;;;;;8.30;5.00;;;15.40;90.50;;;;;;5011329;28;20274;-78
2022/04/13 07:25:52;;;;;;;9.90;5.40;;;15.50;89.60;;;;;;4973603;28;20314;-78
2022/04/13 07:28:19;;;;;;;6.03;4.77;;;15.50;87.60;;;;;;5006952;28;20194;-78
2022/04/13 07:30:46;;;;;;;7.43;5.17;;;15.60;87.90;;;;;;5010924;28;20175;-78
2022/04/13 07:33:11;;;;;;;6.20;5.50;;;15.70;86.80;;;;;;5009750;28;20180;-79
2022/04/13 07:35:37;;;;;;;6.93;5.33;;;15.70;90.50;;;;;;5006420;28;20262;-78
2022/04/13 07:38:03;;;;;;;7.27;5.47;;;15.80;91.10;;;;;;5027272;28;20187;-78
2022/04/13 07:40:29;;;;;;;6.20;4.80;;;15.90;90.90;;;;;;5009544;28;20212;-78
2022/04/13 07:42:54;;;;;;;5.70;4.97;;;16.00;90.70;;;;;;5027285;28;20254;-78
2022/04/13 07:45:20;;;;;;;5.97;5.37;;;16.10;90.30;;;;;;5003201;28;20871;-79
2022/04/13 07:47:47;;;;;;;5.87;5.20;;;16.10;90.00;;;;;;5025535;28;20183;-79
2022/04/13 07:50:13;;;;;;;5.70;5.07;;;16.10;90.10;;;;;;5010392;28;20557;-78
2022/04/13 07:52:41;;;;;;;6.13;5.03;;;16.10;91.10;;;;;;5009905;28;20190;-79
2022/04/13 07:55:09;;;;;;;9.37;5.17;;;16.10;92.10;;;;;;5009092;28;20365;-79
2022/04/13 07:57:40;;;;;;;5.33;4.80;;;16.20;93.90;;;;;;5010705;28;20202;-79
2022/04/13 08:00:09;;;;;;;6.67;5.40;;;16.20;95.10;;;;;;5007522;28;20179;-78
2022/04/13 08:02:40;;;;;;;6.80;4.90;;;16.20;94.30;;;;;;5007934;28;20187;-79
2022/04/13 08:05:07;;;;;;;6.60;5.67;;;16.30;92.40;;;;;;5008815;28;20205;-79
2022/04/13 08:07:34;;;;;;;6.23;5.50;;;16.30;93.40;;;;;;5021560;28;20214;-79
2022/04/13 08:09:59;;;;;;;7.70;6.20;;;16.30;94.40;;;;;;5007933;28;20219;-79
2022/04/13 08:12:29;;;;;;;6.40;5.67;;;16.30;93.70;;;;;;5009208;28;20226;-78
2022/04/13 08:14:56;;;;;;;6.77;5.63;;;16.30;93.10;;;;;;5007202;28;20183;-78
2022/04/13 08:17:24;;;;;;;8.97;6.53;;;16.40;94.10;;;;;;5004892;28;20587;-79
2022/04/13 08:19:50;;;;;;;13.20;6.33;;;16.50;91.90;;;;;;5005676;28;20184;-79
2022/04/13 08:22:17;;;;;;;9.07;6.37;;;16.50;93.80;;;;;;5008149;28;20215;-79
2022/04/13 08:24:43;;;;;;;9.80;6.20;;;16.50;93.40;;;;;;5008960;28;20179;-79
2022/04/13 08:27:10;;;;;;;8.17;5.70;;;16.60;93.80;;;;;;4989826;28;20206;-79
2022/04/13 08:29:36;;;;;;;6.53;5.37;;;16.80;87.30;;;;;;5009519;28;20254;-79
2022/04/13 08:32:02;;;;;;;8.73;5.90;;;16.90;89.20;;;;;;5008691;28;20693;-78
2022/04/13 08:34:28;;;;;;;10.73;6.23;;;17.20;77.30;;;;;;5009139;28;20201;-79
2022/04/13 08:36:54;;;;;;;8.97;5.77;;;17.40;71.80;;;;;;4992679;28;20210;-79
2022/04/13 08:39:20;;;;;;;7.07;5.40;;;17.50;69.30;;;;;;5009144;28;20185;-79
2022/04/13 08:41:50;;;;;;;7.60;5.60;;;17.60;66.50;;;;;;5010444;28;20225;-79
2022/04/13 08:44:40;;;;;;;5.70;5.20;;;17.70;66.30;;;;;;4994359;28;20174;-79
2022/04/13 08:47:11;;;;;;;6.43;5.27;;;17.80;65.20;;;;;;5008805;28;20199;-78
2022/04/13 08:49:39;;;;;;;9.77;5.90;;;18.00;66.40;;;;;;5009533;28;20192;-78
2022/04/13 08:52:08;;;;;;;6.13;4.93;;;18.10;64.40;;;;;;5007694;28;20709;-79
2022/04/13 08:54:50;;;;;;;7.60;6.03;;;18.20;63.80;;;;;;5009289;28;20268;-79
2022/04/13 08:57:20;;;;;;;6.80;5.27;;;18.30;62.10;;;;;;5005306;28;20191;-79
2022/04/13 09:00:11;;;;;;;7.47;5.50;;;18.30;62.30;;;;;;5025403;28;20175;-79
2022/04/13 09:02:56;;;;;;;7.43;5.80;;;18.50;61.30;;;;;;5006933;28;20222;-77
2022/04/13 09:05:31;;;;;;;8.33;6.03;;;18.50;61.50;;;;;;5007982;28;20207;-81
2022/04/13 09:08:08;;;;;;;7.67;6.30;;;18.40;61.60;;;;;;5007456;28;20183;-79
2022/04/13 09:10:36;;;;;;;9.60;5.70;;;18.40;61.30;;;;;;5007760;28;20198;-79
2022/04/13 09:13:02;;;;;;;8.57;5.80;;;18.50;61.50;;;;;;5008033;28;20249;-79
2022/04/13 09:15:28;;;;;;;8.10;5.60;;;18.50;61.00;;;;;;5008590;28;20291;-79
2022/04/13 09:17:55;;;;;;;8.37;6.00;;;18.60;60.90;;;;;;5008636;28;20194;-79
2022/04/13 09:20:21;;;;;;;9.07;5.90;;;18.60;60.50;;;;;;5011435;28;20222;-79
2022/04/13 09:22:49;;;;;;;8.30;6.10;;;18.60;61.40;;;;;;5005853;28;20297;-80
2022/04/13 09:25:18;;;;;;;10.47;6.20;;;18.80;61.40;;;;;;5008299;28;20254;-81
2022/04/13 09:27:44;;;;;;;7.73;6.20;;;18.80;60.70;;;;;;5008580;28;20180;-79
2022/04/13 09:30:12;;;;;;;9.93;7.13;;;18.80;60.10;;;;;;5008026;28;20183;-79
2022/04/13 09:32:38;;;;;;;7.97;6.47;;;18.90;60.60;;;;;;5009845;28;20262;-79
2022/04/13 09:35:05;;;;;;;7.57;6.30;;;18.90;59.90;;;;;;5008111;28;20180;-79
2022/04/13 09:37:31;;;;;;;7.60;6.30;;;19.10;58.70;;;;;;5011314;28;21278;-80
2022/04/13 09:39:59;;;;;;;6.77;4.97;;;19.20;57.80;;;;;;5012615;28;20214;-81
2022/04/13 09:42:29;;;;;;;6.57;4.90;;;19.20;56.10;;;;;;5008322;28;20186;-80
2022/04/13 09:44:56;;;;;;;8.40;5.43;;;19.30;55.90;;;;;;5007988;28;20214;-80
2022/04/13 09:47:29;;;;;;;8.27;5.80;;;19.40;56.10;;;;;;5007306;28;20183;-79
2022/04/13 09:49:56;;;;;;;6.30;5.03;;;19.50;55.50;;;;;;4990950;28;20278;-79
2022/04/13 09:52:37;;;;;;;7.17;4.80;;;19.60;55.10;;;;;;4989568;28;20211;-79
2022/04/13 09:55:07;;;;;;;6.97;4.90;;;19.70;54.80;;;;;;5007049;28;20262;-79
2022/04/13 09:57:33;;;;;;;7.17;4.43;;;19.80;54.40;;;;;;5009169;28;20194;-81
2022/04/13 10:00:02;;;;;;;7.17;4.30;;;19.90;54.60;;;;;;4976412;28;20811;-81
2022/04/13 10:02:42;;;;;;;7.90;4.60;;;20.00;54.50;;;;;;5009473;28;20182;-79
2022/04/13 10:05:18;;;;;;;5.33;4.60;;;20.10;53.90;;;;;;5008698;28;20624;-81
2022/04/13 10:07:44;;;;;;;7.10;4.97;;;20.10;53.80;;;;;;5005307;28;20186;-77
2022/04/13 10:10:24;;;;;;;7.10;4.00;;;20.10;52.40;;;;;;5007452;28;20191;-77
2022/04/13 10:12:51;;;;;;;10.40;6.00;;;20.20;52.60;;;;;;4989928;28;20286;-80
2022/04/13 10:15:17;;;;;;;10.40;5.87;;;20.20;53.10;;;;;;5004113;28;20203;-77
2022/04/13 10:17:42;;;;;;;10.57;6.47;;;20.20;52.90;;;;;;5007127;28;20589;-77
2022/04/13 10:20:09;;;;;;;9.57;6.70;;;20.20;53.10;;;;;;4989443;28;20275;-77
2022/04/13 10:22:58;;;;;;;10.87;6.27;;;20.20;53.60;;;;;;5007113;28;20205;-77
2022/04/13 10:25:27;;;;;;;8.30;6.27;;;20.30;52.70;;;;;;5006195;28;20207;-78
2022/04/13 10:27:55;;;;;;;6.70;5.43;;;20.30;53.30;;;;;;5013018;28;20179;-77
2022/04/13 10:30:32;;;;;;;7.53;5.37;;;20.40;52.30;;;;;;5006250;28;20179;-77
2022/04/13 10:33:14;;;;;;;8.97;6.43;;;20.50;51.80;;;;;;5004572;28;20234;-77
2022/04/13 10:35:42;;;;;;;9.23;5.30;;;20.60;52.70;;;;;;4987444;28;20878;-77
2022/04/13 10:38:09;;;;;;;7.50;5.80;;;20.60;52.60;;;;;;5007281;28;20226;-77
2022/04/13 10:40:41;;;;;;;9.53;6.17;;;20.70;52.20;;;;;;5005736;28;20211;-77
2022/04/13 10:43:08;;;;;;;8.83;6.00;;;20.90;52.50;;;;;;5007140;28;20233;-77
2022/04/13 10:45:38;;;;;;;7.77;5.37;;;21.00;52.00;;;;;;5005670;28;20203;-81
2022/04/13 10:48:09;;;;;;;7.47;5.47;;;21.00;51.90;;;;;;5010200;28;20164;-80
2022/04/13 10:50:54;;;;;;;9.00;6.07;;;21.10;51.90;;;;;;5012833;28;20572;-82
2022/04/13 10:53:34;;;;;;;8.83;5.40;;;21.20;51.70;;;;;;5011428;28;20222;-82
2022/04/13 10:56:00;;;;;;;9.07;5.33;;;21.40;51.60;;;;;;4984304;28;20198;-81
2022/04/13 10:58:51;;;;;;;5.20;4.70;;;21.50;51.40;;;;;;5013512;28;20194;-82
2022/04/13 11:01:20;;;;;;;5.87;5.10;;;21.50;50.90;;;;;;5012381;28;20217;-82
2022/04/13 11:03:47;;;;;;;7.87;4.73;;;21.70;50.70;;;;;;5012704;28;20183;-81
2022/04/13 11:06:13;;;;;;;6.63;4.20;;;21.80;50.20;;;;;;5013061;28;20237;-81
2022/04/13 11:08:52;;;;;;;8.07;5.00;;;21.90;49.90;;;;;;5013113;28;20180;-82
2022/04/13 11:11:22;;;;;;;8.10;5.03;;;22.00;49.70;;;;;;5014541;28;20611;-82
2022/04/13 11:13:49;;;;;;;6.03;5.20;;;22.00;49.80;;;;;;5007560;28;20193;-82
2022/04/13 11:16:23;;;;;;;5.20;4.10;;;22.10;49.40;;;;;;5004390;28;20223;-82
2022/04/13 11:19:04;;;;;;;5.73;4.20;;;22.20;49.80;;;;;;4990015;28;20183;-82
2022/04/13 11:21:34;;;;;;;6.07;4.27;;;22.40;49.50;;;;;;5013083;28;20264;-82
2022/04/13 11:24:00;;;;;;;8.00;5.07;;;22.60;50.00;;;;;;5001389;28;20219;-82
2022/04/13 11:26:35;;;;;;;8.00;5.70;;;22.80;49.70;;;;;;5016562;28;20249;-82
2022/04/13 11:29:17;;;;;;;11.63;6.47;;;22.80;49.10;;;;;;5027340;28;20310;-81
2022/04/13 11:32:02;;;;;;;11.73;6.30;;;22.90;49.60;;;;;;4997812;28;20601;-81
2022/04/13 11:34:29;;;;;;;8.50;6.10;;;23.00;50.30;;;;;;5013546;28;20191;-82
2022/04/13 11:37:01;;;;;;;10.03;5.53;;;23.00;49.80;;;;;;5013097;28;20266;-81
2022/04/13 11:40:03;;;;;;;9.23;5.17;;;23.20;49.20;;;;;;4998568;28;20666;-82
2022/04/13 11:42:29;;;;;;;6.57;4.73;;;23.30;49.60;;;;;;5000823;28;20265;-81
2022/04/13 11:45:12;;;;;;;5.97;4.40;;;23.60;48.20;;;;;;5017240;28;20707;-81
2022/04/13 11:47:41;;;;;;;6.37;4.27;;;23.60;47.40;;;;;;5013948;28;20189;-82
2022/04/13 11:50:13;;;;;;;8.73;4.20;;;23.90;47.50;;;;;;4996590;28;20234;-81
2022/04/13 11:52:49;;;;;;;6.27;3.77;;;24.20;47.00;;;;;;4997460;28;20199;-82
2022/04/13 11:55:18;;;;;;;5.13;3.70;;;24.50;46.50;;;;;;5011117;28;20217;-81
2022/04/13 11:58:09;;;;;;;4.67;3.33;;;24.80;46.00;;;;;;5014579;28;20243;-81
2022/04/13 12:00:42;;;;;;;4.83;3.67;;;25.00;45.30;;;;;;5012176;28;20225;-81
2022/04/13 12:03:37;;;;;;;5.97;3.60;;;25.30;44.90;;;;;;4990765;28;20181;-82
2022/04/13 12:06:19;;;;;;;4.70;3.53;;;25.50;44.60;;;;;;5003542;28;20210;-82
2022/04/13 12:08:51;;;;;;;7.10;3.70;;;25.90;44.50;;;;;;5015482;28;20675;-82
2022/04/13 12:11:38;;;;;;;5.73;3.50;;;26.10;43.80;;;;;;5014428;28;20199;-82
2022/04/13 12:14:05;;;;;;;6.67;3.80;;;26.40;43.70;;;;;;4979526;28;20258;-81
2022/04/13 12:16:34;;;;;;;5.50;3.63;;;26.40;42.50;;;;;;5020215;28;20207;-82
2022/04/13 12:19:02;;;;;;;5.13;3.50;;;26.30;42.90;;;;;;5014220;28;20167;-81
2022/04/13 12:21:30;;;;;;;5.27;3.13;;;26.50;43.50;;;;;;5028276;28;20214;-82
2022/04/13 12:23:56;;;;;;;4.77;2.67;;;27.00;43.00;;;;;;5028924;28;20190;-82
2022/04/13 12:26:30;;;;;;;3.70;2.80;;;27.20;41.90;;;;;;5012651;28;20206;-82
2022/04/13 12:28:56;;;;;;;6.47;3.17;;;27.70;41.90;;;;;;5008508;28;20183;-82
2022/04/13 12:31:22;;;;;;;4.30;2.77;;;28.20;41.40;;;;;;5013677;28;20187;-82
2022/04/13 12:33:48;;;;;;;4.50;2.60;;;28.40;40.40;;;;;;4997829;28;20191;-83
2022/04/13 12:36:16;;;;;;;7.07;2.80;;;28.70;40.00;;;;;;5017536;28;20210;-83
2022/04/13 12:38:42;;;;;;;7.10;2.43;;;28.90;39.90;;;;;;5015453;28;20266;-83
2022/04/13 12:41:11;;;;;;;7.20;2.60;;;29.30;38.80;;;;;;5016243;28;20654;-84
2022/04/13 12:43:42;;;;;;;3.90;2.53;;;29.30;37.70;;;;;;4995893;28;20184;-84
2022/04/13 12:46:16;;;;;;;5.03;2.40;;;29.20;38.20;;;;;;4995492;28;20210;-84
2022/04/13 12:48:47;;;;;;;4.00;2.30;;;29.30;38.20;;;;;;5009829;28;20533;-84
2022/04/13 12:51:14;;;;;;;5.97;2.60;;;29.50;38.60;;;;;;4995568;28;20186;-83
2022/04/13 12:53:50;;;;;;;6.70;2.37;;;29.80;38.40;;;;;;4999381;28;20557;-84
2022/04/13 12:56:22;;;;;;;4.07;2.03;;;30.20;36.70;;;;;;4991585;28;20202;-84